createdAt,value
2023-02-12T00:02:20.002Z,-4.54
2023-02-12T00:07:23.997Z,-4.65
2023-02-12T00:12:29.321Z,-4.36
2023-02-12T00:17:33.260Z,-4.59
2023-02-12T00:22:37.150Z,-4.48
2023-02-12T00:27:42.422Z,-4.56
2023-02-12T00:32:46.905Z,-4.64
2023-02-12T00:37:50.840Z,-4.77
2023-02-12T00:42:56.156Z,-4.58
2023-02-12T00:48:00.843Z,-4.66
2023-02-12T00:53:04.824Z,-4.75
2023-02-12T00:58:10.335Z,-4.66
2023-02-12T01:03:14.293Z,-4.90
2023-02-12T01:08:18.587Z,-5.26
2023-02-12T01:13:24.043Z,-5.08
2023-02-12T01:18:28.031Z,-5.24
2023-02-12T01:23:31.998Z,-5.41
2023-02-12T01:28:37.882Z,-5.45
2023-02-12T01:33:42.163Z,-5.34
2023-02-12T01:38:46.105Z,-5.20
2023-02-12T01:44:10.550Z,-5.30
2023-02-12T01:49:18.307Z,-5.43
2023-02-12T01:54:25.861Z,-5.06
2023-02-12T01:59:32.625Z,-5.31
2023-02-12T02:04:41.620Z,-5.08
2023-02-12T02:09:45.897Z,-5.22
2023-02-12T02:14:53.829Z,-4.77
2023-02-12T02:20:27.357Z,-5.09
2023-02-12T02:25:53.504Z,-4.89
2023-02-12T02:31:04.676Z,-4.77
2023-02-12T02:36:17.715Z,-4.63
2023-02-12T02:41:28.711Z,-4.44
2023-02-12T02:46:37.849Z,-4.42
2023-02-12T02:51:45.206Z,-4.19
2023-02-12T02:56:52.184Z,-4.30
2023-02-12T03:02:00.998Z,-4.30
2023-02-12T03:07:09.995Z,-3.59
2023-02-12T03:12:19.604Z,-4.11
2023-02-12T03:17:28.214Z,-3.95
2023-02-12T03:22:35.460Z,-4.21
2023-02-12T03:27:42.437Z,-4.31
2023-02-12T03:32:56.087Z,-4.35
2023-02-12T03:38:07.660Z,-4.31
2023-02-12T03:43:20.463Z,-4.12
2023-02-12T03:48:30.208Z,-4.14
2023-02-12T03:53:34.373Z,-2.96
2023-02-12T03:58:40.159Z,-2.13
2023-02-12T04:03:45.987Z,-1.66
2023-02-12T04:08:50.309Z,-1.09
2023-02-12T04:14:08.831Z,-0.70
2023-02-12T04:19:18.276Z,-0.91
2023-02-12T04:24:36.252Z,-1.46
2023-02-12T04:29:47.159Z,-1.02
2023-02-12T04:34:58.474Z,-1.06
2023-02-12T04:40:05.574Z,-1.57
2023-02-12T04:45:10.509Z,-1.05
2023-02-12T04:50:16.260Z,-0.61
2023-02-12T04:55:20.243Z,-0.47
2023-02-12T05:00:24.398Z,-0.45
2023-02-12T05:05:29.655Z,-0.43
2023-02-12T05:10:33.526Z,-0.49
2023-02-12T05:15:40.232Z,-0.50
2023-02-12T05:20:45.564Z,-0.43
2023-02-12T05:25:49.492Z,-0.39
2023-02-12T05:30:53.455Z,-0.36
2023-02-12T05:36:04.995Z,-0.42
2023-02-12T05:41:12.267Z,-0.26
2023-02-12T05:46:16.735Z,-0.20
2023-02-12T05:51:24.219Z,-0.19
2023-02-12T05:56:30.453Z,-0.14
2023-02-12T06:01:37.359Z,-0.14
2023-02-12T06:06:43.391Z,-0.20
2023-02-12T06:11:47.540Z,-0.27
2023-02-12T06:16:52.879Z,-1.17
2023-02-12T06:21:58.215Z,-1.56
2023-02-12T06:27:02.123Z,-1.55
2023-02-12T06:32:08.443Z,-1.75
2023-02-12T06:37:14.303Z,-0.90
2023-02-12T06:42:18.200Z,-0.91
2023-02-12T06:47:22.133Z,-0.99
2023-02-12T06:52:28.296Z,-1.70
2023-02-12T06:57:32.255Z,-1.73
2023-02-12T07:02:38.887Z,-1.33
2023-02-12T07:07:44.437Z,-1.06
2023-02-12T07:12:49.683Z,-1.12
2023-02-12T07:17:53.634Z,-0.95
2023-02-12T07:22:58.928Z,-0.59
2023-02-12T07:28:02.867Z,-1.10
2023-02-12T07:33:06.804Z,-0.67
2023-02-12T07:38:12.726Z,0.11
2023-02-12T07:43:16.637Z,0.10
2023-02-12T07:48:20.546Z,0.25
2023-02-12T07:53:25.901Z,1.12
2023-02-12T07:58:29.806Z,1.19
2023-02-12T08:03:33.649Z,0.99
2023-02-12T08:08:39.702Z,0.71
2023-02-12T08:13:43.715Z,0.99
2023-02-12T08:18:48.263Z,1.21
2023-02-12T08:23:55.279Z,1.08
2023-02-12T08:29:02.357Z,1.64
2023-02-12T08:34:06.969Z,1.04
2023-02-12T08:39:12.593Z,1.66
2023-02-12T08:44:17.291Z,1.60
2023-02-12T08:49:22.940Z,1.80
2023-02-12T08:54:30.240Z,1.56
2023-02-12T08:59:33.890Z,1.84
2023-02-12T09:04:37.796Z,1.76
2023-02-12T09:09:43.186Z,1.24
2023-02-12T09:14:47.626Z,2.17
2023-02-12T09:19:51.588Z,3.11
2023-02-12T09:24:56.924Z,2.72
2023-02-12T09:30:00.885Z,2.45
2023-02-12T09:35:04.915Z,3.05
2023-02-12T09:40:20.182Z,2.62
2023-02-12T09:45:27.752Z,2.13
2023-02-12T09:50:42.007Z,2.38
2023-02-12T09:55:47.610Z,2.49
2023-02-12T10:00:51.588Z,1.98
2023-02-12T10:06:01.547Z,2.45
2023-02-12T10:11:25.428Z,2.39
2023-02-12T10:16:43.165Z,2.63
2023-02-12T10:21:58.205Z,3.18
2023-02-12T10:27:11.017Z,2.38
2023-02-12T10:32:25.566Z,2.62
2023-02-12T10:37:37.278Z,3.57
2023-02-12T10:42:46.020Z,3.13
2023-02-12T10:47:54.136Z,2.29
2023-02-12T10:53:03.574Z,2.24
2023-02-12T10:58:21.164Z,2.17
2023-02-12T11:03:30.542Z,2.62
2023-02-12T11:08:36.589Z,2.04
2023-02-12T11:13:45.825Z,2.16
2023-02-12T11:18:59.878Z,3.47
2023-02-12T11:24:24.076Z,5.38
2023-02-12T11:29:29.824Z,6.41
2023-02-12T11:34:34.018Z,4.66
2023-02-12T11:39:40.915Z,4.64
2023-02-12T11:44:52.148Z,4.36
2023-02-12T11:49:59.915Z,5.13
2023-02-12T11:55:09.250Z,4.61
2023-02-12T12:00:19.203Z,5.55
2023-02-12T12:05:35.166Z,6.40
2023-02-12T12:10:43.762Z,4.07
2023-02-12T12:16:10.029Z,3.84
2023-02-12T12:21:22.101Z,2.78
2023-02-12T12:26:28.027Z,3.57
2023-02-12T12:31:41.414Z,5.82
2023-02-12T12:37:02.441Z,6.75
2023-02-12T12:42:39.542Z,6.51
2023-02-12T12:47:58.672Z,6.14
2023-02-12T12:53:23.018Z,6.00
2023-02-12T12:58:39.804Z,6.60
2023-02-12T13:04:10.055Z,7.50
2023-02-12T13:09:30.316Z,7.58
2023-02-12T13:14:44.475Z,8.05
2023-02-12T13:19:59.863Z,8.43
2023-02-12T13:25:18.021Z,7.03
2023-02-12T13:30:25.008Z,6.59
2023-02-12T13:35:32.495Z,5.46
2023-02-12T13:40:36.952Z,3.69
2023-02-12T13:45:50.645Z,3.49
2023-02-12T13:51:06.199Z,4.19
2023-02-12T13:56:30.883Z,4.22
2023-02-12T14:01:47.503Z,4.92
2023-02-12T14:07:01.012Z,4.61
2023-02-12T14:12:07.901Z,4.07
2023-02-12T14:17:44.429Z,4.10
2023-02-12T14:23:28.083Z,3.68
2023-02-12T14:28:50.985Z,3.47
2023-02-12T14:34:48.369Z,3.63
2023-02-12T14:40:30.752Z,2.82
2023-02-12T14:45:37.454Z,2.62
2023-02-12T14:50:50.458Z,2.45
2023-02-12T14:55:55.091Z,2.29
2023-02-12T15:01:04.248Z,2.30
2023-02-12T15:06:16.998Z,1.88
2023-02-12T15:11:40.487Z,1.67
2023-02-12T15:16:55.589Z,1.53
2023-02-12T15:21:59.892Z,1.49
2023-02-12T15:27:06.210Z,1.47
2023-02-12T15:32:19.336Z,1.18
2023-02-12T15:37:27.398Z,0.77
2023-02-12T15:42:33.712Z,0.45
2023-02-12T15:47:39.032Z,0.35
2023-02-12T15:52:45.743Z,0.48
2023-02-12T15:57:55.192Z,0.52
2023-02-12T16:03:00.516Z,0.45
2023-02-12T16:08:04.761Z,0.51
2023-02-12T16:13:08.709Z,0.43
2023-02-12T16:18:26.361Z,0.44
2023-02-12T16:23:30.625Z,0.56
2023-02-12T16:28:34.816Z,0.62
2023-02-12T16:33:48.767Z,0.64
2023-02-12T16:38:53.884Z,0.60
2023-02-12T16:44:27.938Z,0.64
2023-02-12T16:49:33.267Z,0.72
2023-02-12T16:54:37.524Z,0.60
2023-02-12T16:59:44.517Z,0.61
2023-02-12T17:04:49.972Z,0.54
2023-02-12T17:09:53.851Z,0.59
2023-02-12T17:14:57.913Z,0.36
2023-02-12T17:20:03.207Z,0.55
2023-02-12T17:25:08.974Z,0.51
2023-02-12T17:30:17.309Z,0.51
2023-02-12T17:35:22.671Z,0.45
2023-02-12T17:40:26.835Z,0.40
2023-02-12T17:45:30.906Z,0.46
2023-02-12T17:50:36.421Z,0.36
2023-02-12T18:01:09.048Z,0.19
2023-02-12T18:06:16.716Z,0.11
2023-02-12T18:11:21.186Z,-0.08
2023-02-12T18:16:26.738Z,-0.26
2023-02-12T18:21:34.019Z,-0.35
2023-02-12T18:26:37.678Z,-0.37
2023-02-12T18:31:41.595Z,-0.50
2023-02-12T18:36:46.930Z,-0.61
2023-02-12T18:41:52.346Z,-0.70
2023-02-12T18:46:57.418Z,-0.69
2023-02-12T18:52:03.154Z,-0.69
2023-02-12T18:57:07.101Z,-0.70
2023-02-12T19:02:13.744Z,-0.68
2023-02-12T19:07:19.075Z,-0.71
2023-02-12T19:12:23.309Z,-0.78
2023-02-12T19:17:30.302Z,-0.83
2023-02-12T19:22:35.599Z,-0.87
2023-02-12T19:27:39.522Z,-0.98
2023-02-12T19:32:43.393Z,-0.98
2023-02-12T19:37:48.661Z,-1.02
2023-02-12T19:42:52.605Z,-1.19
2023-02-12T19:47:56.538Z,-1.25
2023-02-12T19:53:01.887Z,-1.33
2023-02-12T19:58:06.696Z,-1.32
2023-02-12T20:03:10.614Z,-1.37
2023-02-12T20:08:15.930Z,-1.38
2023-02-12T20:13:21.320Z,-1.30
2023-02-12T20:18:25.183Z,-1.26
2023-02-12T20:23:30.534Z,-1.31
2023-02-12T20:28:35.542Z,-1.37
2023-02-12T20:33:39.823Z,-1.39
2023-02-12T20:38:45.737Z,-1.44
2023-02-12T20:43:49.988Z,-1.47
2023-02-12T20:48:55.145Z,-1.50
2023-02-12T20:54:01.569Z,-1.47
2023-02-12T20:59:07.095Z,-1.50
2023-02-12T21:04:13.306Z,-1.32
2023-02-12T21:09:19.950Z,-1.27
2023-02-12T21:14:24.585Z,-1.29
2023-02-12T21:19:29.082Z,-1.37
2023-02-12T21:24:34.646Z,-1.65
2023-02-12T21:29:39.218Z,-1.45
2023-02-12T21:34:43.203Z,-1.38
2023-02-12T21:39:48.678Z,-1.12
2023-02-12T21:44:53.021Z,-1.32
2023-02-12T21:49:59.418Z,-1.39
2023-02-12T21:55:04.915Z,-1.11
2023-02-12T22:00:10.567Z,-1.25
2023-02-12T22:05:17.705Z,-1.27
2023-02-12T22:10:23.354Z,-1.72
2023-02-12T22:15:27.579Z,-1.77
2023-02-12T22:20:31.698Z,-1.57
2023-02-12T22:25:37.158Z,-1.36
2023-02-12T22:30:41.398Z,-1.61
2023-02-12T22:35:45.469Z,-1.46
2023-02-12T22:40:54.589Z,-1.49
2023-02-12T22:45:59.100Z,-1.38
2023-02-12T22:51:09.901Z,-1.43
2023-02-12T22:56:16.132Z,-1.23
2023-02-12T23:01:21.248Z,-1.37
2023-02-12T23:06:27.724Z,-1.59
2023-02-12T23:11:35.174Z,-2.03
2023-02-12T23:16:39.408Z,-2.08
2023-02-12T23:21:44.160Z,-2.23
2023-02-12T23:26:49.648Z,-2.00
2023-02-12T23:31:53.658Z,-2.14
2023-02-12T23:36:57.623Z,-2.35
2023-02-12T23:42:03.479Z,-2.47
2023-02-12T23:47:07.577Z,-2.57
2023-02-12T23:52:11.578Z,-2.42
2023-02-12T23:57:17.484Z,-2.27
